Time;durP1;ratioP1;P1;durP2;ratioP2;P2;SDS_P1;SDS_P2;PMS_P1;PMS_P2;Temp;Humidity;BMP_temperature;BMP_pressure;BME280_temperature;BME280_humidity;BME280_pressure;Samples;Min_cycle;Max_cycle;Signal;HPM_P1;HPM_P2
2024/02/21 00:01:15;;;;;;;15.50;4.07;;;;;;;6.86;100.00;101632.13;6017453;23;20184;-76
2024/02/21 00:03:42;;;;;;;10.23;3.03;;;;;;;6.87;100.00;101626.63;6017006;23;20213;-76
2024/02/21 00:06:08;;;;;;;14.93;4.10;;;;;;;6.88;100.00;101620.31;5983051;23;20187;-76
2024/02/21 00:08:35;;;;;;;7.40;3.23;;;;;;;6.89;100.00;101624.50;6017398;23;20649;-76
2024/02/21 00:11:01;;;;;;;13.83;3.63;;;;;;;6.90;100.00;101625.28;6017154;23;20195;-77
2024/02/21 00:13:27;;;;;;;13.43;3.60;;;;;;;6.90;100.00;101618.19;6017832;23;20372;-76
2024/02/21 00:15:55;;;;;;;11.37;3.50;;;;;;;6.90;100.00;101618.19;6017161;23;20178;-76
2024/02/21 00:18:21;;;;;;;9.17;3.53;;;;;;;6.93;100.00;101614.22;6016956;23;20180;-76
2024/02/21 00:20:48;;;;;;;12.03;3.53;;;;;;;6.92;100.00;101613.44;5982845;23;20580;-76
2024/02/21 00:23:14;;;;;;;12.63;3.20;;;;;;;6.93;100.00;101615.00;6016901;23;20254;-76
2024/02/21 00:25:41;;;;;;;9.77;3.30;;;;;;;6.94;100.00;101606.06;6017512;23;20196;-76
2024/02/21 00:28:07;;;;;;;12.57;3.73;;;;;;;6.95;100.00;101607.63;5982640;23;20261;-77
2024/02/21 00:30:33;;;;;;;14.57;3.73;;;;;;;6.96;100.00;101603.97;6016688;23;20178;-76
2024/02/21 00:33:01;;;;;;;12.23;3.60;;;;;;;6.98;100.00;101593.16;6016988;23;20173;-76
2024/02/21 00:35:27;;;;;;;9.93;3.33;;;;;;;6.98;100.00;101596.59;6015912;23;20166;-76
2024/02/21 00:37:54;;;;;;;13.57;3.53;;;;;;;6.99;100.00;101586.88;6016756;23;20178;-76
2024/02/21 00:40:21;;;;;;;6.83;2.83;;;;;;;6.99;100.00;101592.91;5982012;23;20172;-76
2024/02/21 00:42:48;;;;;;;7.67;3.13;;;;;;;6.99;100.00;101586.88;6017127;23;20249;-76
2024/02/21 00:45:14;;;;;;;19.37;3.80;;;;;;;6.99;100.00;101589.50;6016982;23;20170;-76
2024/02/21 00:47:41;;;;;;;9.10;3.53;;;;;;;6.98;100.00;101580.03;6016843;23;20171;-76
2024/02/21 00:50:10;;;;;;;13.10;4.03;;;;;;;6.99;100.00;101585.03;6006813;23;20949;-77
2024/02/21 00:52:36;;;;;;;17.03;3.57;;;;;;;6.98;100.00;101577.41;6017101;23;20171;-76
2024/02/21 00:55:03;;;;;;;11.57;3.57;;;;;;;6.98;100.00;101570.31;6016774;23;20240;-76
2024/02/21 00:57:30;;;;;;;11.80;3.20;;;;;;;6.99;100.00;101577.13;6006383;23;20553;-76
2024/02/21 00:59:56;;;;;;;12.97;3.60;;;;;;;6.98;100.00;101580.03;6017175;23;20193;-76
2024/02/21 01:02:22;;;;;;;12.53;4.13;;;;;;;6.98;100.00;101574.78;5982978;23;20676;-76
2024/02/21 01:04:49;;;;;;;12.07;3.30;;;;;;;6.99;100.00;101568.50;6016589;23;20168;-76
2024/02/21 01:07:16;;;;;;;10.13;3.87;;;;;;;6.98;100.00;101566.91;6016546;23;20639;-76
2024/02/21 01:09:43;;;;;;;15.70;3.13;;;;;;;6.97;100.00;101557.47;6005574;23;20196;-76
2024/02/21 01:12:09;;;;;;;13.07;3.97;;;;;;;6.98;100.00;101556.41;6015831;23;20243;-76
2024/02/21 01:14:36;;;;;;;9.30;3.50;;;;;;;6.97;100.00;101552.22;5982168;23;20211;-76
2024/02/21 01:17:02;;;;;;;13.07;3.10;;;;;;;6.98;100.00;101543.28;6016923;23;20164;-76
2024/02/21 01:19:28;;;;;;;9.90;3.33;;;;;;;6.98;100.00;101545.91;5981733;23;20189;-76
2024/02/21 01:21:55;;;;;;;12.60;3.30;;;;;;;6.97;100.00;101545.13;6016914;23;20173;-76
2024/02/21 01:24:24;;;;;;;11.47;3.27;;;;;;;6.98;100.00;101535.41;6015983;23;20168;-76
2024/02/21 01:26:50;;;;;;;15.80;3.60;;;;;;;6.96;100.00;101534.91;6016047;23;20222;-76
2024/02/21 01:29:16;;;;;;;14.37;3.53;;;;;;;6.94;100.00;101529.94;6016185;23;20185;-76
2024/02/21 01:31:43;;;;;;;15.77;3.93;;;;;;;6.94;100.00;101529.16;6016462;23;20705;-76
2024/02/21 01:34:09;;;;;;;12.60;3.87;;;;;;;6.92;100.00;101529.44;5981446;23;20180;-76
2024/02/21 01:36:36;;;;;;;12.10;3.73;;;;;;;6.92;100.00;101528.63;6014826;23;20170;-76
2024/02/21 01:39:02;;;;;;;5.20;2.80;;;;;;;6.90;100.00;101518.44;6016834;23;20601;-76
2024/02/21 01:41:32;;;;;;;10.40;3.30;;;;;;;6.89;100.00;101521.34;6015613;23;20169;-76
2024/02/21 01:43:58;;;;;;;11.60;3.10;;;;;;;6.88;100.00;101517.91;6015373;23;20176;-76
2024/02/21 01:46:27;;;;;;;15.47;5.07;;;;;;;6.88;100.00;101522.41;6015964;23;20176;-75
2024/02/21 01:48:54;;;;;;;8.00;3.27;;;;;;;6.87;100.00;101518.97;5981860;23;20697;-76
2024/02/21 01:51:20;;;;;;;8.90;3.17;;;;;;;6.87;100.00;101521.59;6016510;23;20531;-76
2024/02/21 01:53:47;;;;;;;12.33;3.70;;;;;;;6.87;100.00;101518.97;6015913;23;20171;-77
2024/02/21 01:56:14;;;;;;;9.90;3.33;;;;;;;6.88;100.00;101514.53;6016241;23;20234;-76
2024/02/21 01:58:43;;;;;;;12.33;3.27;;;;;;;6.89;100.00;101502.97;6016551;23;20241;-76
2024/02/21 02:01:10;;;;;;;11.20;3.43;;;;;;;6.89;100.00;101508.97;6015466;23;20165;-76
2024/02/21 02:03:37;;;;;;;7.03;2.97;;;;;;;6.90;100.00;101502.69;6015822;23;20168;-77
2024/02/21 02:06:06;;;;;;;11.97;3.17;;;;;;;6.90;100.00;101504.53;6016348;23;20178;-76
2024/02/21 02:08:32;;;;;;;7.73;2.60;;;;;;;6.89;100.00;101495.84;6016336;23;20188;-76
2024/02/21 02:10:59;;;;;;;10.80;3.67;;;;;;;6.91;100.00;101503.44;6016049;23;20176;-76
2024/02/21 02:13:26;;;;;;;9.90;3.23;;;;;;;6.89;100.00;101501.09;6016229;23;20168;-77
2024/02/21 02:15:54;;;;;;;5.67;3.00;;;;;;;6.90;100.00;101494.81;6015853;23;20712;-76
2024/02/21 02:18:20;;;;;;;11.07;3.70;;;;;;;6.92;100.00;101486.63;5981749;23;20192;-76
2024/02/21 02:20:47;;;;;;;12.07;2.67;;;;;;;6.92;100.00;101491.88;6015910;23;20160;-77
2024/02/21 02:23:18;;;;;;;7.77;3.00;;;;;;;6.94;100.00;101484.53;6016180;23;20175;-76
2024/02/21 02:25:49;;;;;;;11.60;3.60;;;;;;;6.96;100.00;101485.03;6016175;23;20531;-76
2024/02/21 02:28:15;;;;;;;14.43;3.60;;;;;;;6.96;100.00;101480.56;6016472;23;20195;-76
2024/02/21 02:30:42;;;;;;;14.47;3.37;;;;;;;6.97;100.00;101482.13;6005103;23;20188;-76
2024/02/21 02:33:09;;;;;;;8.33;3.50;;;;;;;6.99;100.00;101484.47;6005402;23;20783;-75
2024/02/21 02:35:36;;;;;;;7.83;2.87;;;;;;;7.00;100.00;101472.91;6003487;23;20507;-76
2024/02/21 02:38:03;;;;;;;7.33;3.03;;;;;;;7.01;100.00;101480.50;6016425;23;20690;-76
2024/02/21 02:40:31;;;;;;;11.73;2.97;;;;;;;7.01;100.00;101477.88;6015778;23;20240;-76
2024/02/21 02:42:57;;;;;;;11.63;2.60;;;;;;;7.02;100.00;101473.41;5981610;23;20679;-76
2024/02/21 02:45:26;;;;;;;7.53;2.93;;;;;;;7.04;100.00;101466.03;6015545;23;20172;-76
2024/02/21 02:47:53;;;;;;;11.73;2.97;;;;;;;7.04;100.00;101453.66;6015697;23;20167;-76
2024/02/21 02:50:20;;;;;;;14.13;2.90;;;;;;;7.05;100.00;101457.84;6015524;23;20181;-76
2024/02/21 02:52:46;;;;;;;14.30;2.70;;;;;;;7.08;100.00;101467.03;5980793;23;20295;-76
2024/02/21 02:55:13;;;;;;;13.30;3.43;;;;;;;7.08;100.00;101462.56;6015748;23;20179;-76
2024/02/21 02:57:41;;;;;;;8.87;2.90;;;;;;;7.09;100.00;101450.22;6015421;23;20167;-76
2024/02/21 03:00:09;;;;;;;17.63;3.23;;;;;;;7.11;100.00;101463.84;5981389;23;20204;-77
2024/02/21 03:02:36;;;;;;;6.53;2.90;;;;;;;7.10;100.00;101451.78;5981545;23;20207;-76
2024/02/21 03:05:13;;;;;;;11.97;3.10;;;;;;;7.11;100.00;101453.34;6016257;23;20174;-77
2024/02/21 03:07:39;;;;;;;9.83;3.27;;;;;;;7.11;100.00;101443.63;6015953;23;20220;-77
2024/02/21 03:10:06;;;;;;;12.50;3.93;;;;;;;7.11;100.00;101448.88;6015534;23;20188;-76
2024/02/21 03:12:32;;;;;;;9.50;3.07;;;;;;;7.12;100.00;101442.56;6016596;23;20164;-75
2024/02/21 03:15:00;;;;;;;8.37;3.10;;;;;;;7.11;100.00;101443.63;6006858;23;20177;-75
2024/02/21 03:17:27;;;;;;;8.03;2.97;;;;;;;7.11;100.00;101440.22;5983058;23;20173;-75
2024/02/21 03:19:55;;;;;;;9.73;3.03;;;;;;;7.10;100.00;101441.28;6017775;23;20192;-75
2024/02/21 03:22:21;;;;;;;8.97;3.40;;;;;;;7.09;100.00;101442.34;5983627;23;20183;-76
2024/02/21 03:24:48;;;;;;;6.93;3.00;;;;;;;7.07;100.00;101441.81;6017551;23;20292;-76
2024/02/21 03:27:14;;;;;;;9.20;2.93;;;;;;;7.07;100.00;101429.50;6018590;23;20175;-76
2024/02/21 03:29:41;;;;;;;10.40;3.63;;;;;;;7.06;100.00;101435.81;5989707;23;20204;-76
2024/02/21 03:32:08;;;;;;;11.03;2.87;;;;;;;7.04;100.00;101439.78;6028894;23;20164;-76
2024/02/21 03:34:35;;;;;;;9.63;2.83;;;;;;;7.03;100.00;101438.97;6024435;23;20168;-75
2024/02/21 03:37:02;;;;;;;14.27;3.20;;;;;;;7.02;100.00;101434.81;6024736;23;20176;-75
2024/02/21 03:39:32;;;;;;;8.00;3.00;;;;;;;6.99;100.00;101437.97;6025718;23;20188;-76
2024/02/21 03:42:00;;;;;;;9.13;3.27;;;;;;;6.98;100.00;101439.03;6026930;23;20168;-75
2024/02/21 03:44:26;;;;;;;10.10;2.87;;;;;;;6.96;100.00;101435.13;6028151;23;20169;-76
2024/02/21 03:46:53;;;;;;;11.37;3.90;;;;;;;6.95;100.00;101434.34;6019957;23;20241;-76
2024/02/21 03:49:20;;;;;;;7.80;3.10;;;;;;;6.93;100.00;101439.09;6026105;23;20198;-76
2024/02/21 03:51:47;;;;;;;11.53;2.77;;;;;;;6.92;100.00;101434.13;6027935;23;20176;-76
2024/02/21 03:54:13;;;;;;;9.77;3.23;;;;;;;6.90;100.00;101425.75;6027002;23;20193;-77
2024/02/21 03:56:40;;;;;;;13.43;3.30;;;;;;;6.87;100.00;101431.56;6024692;23;20170;-76
2024/02/21 03:59:07;;;;;;;9.37;3.33;;;;;;;6.86;100.00;101419.50;6023035;23;20224;-76
2024/02/21 04:01:34;;;;;;;11.27;3.93;;;;;;;6.85;100.00;101423.19;6021542;23;20172;-77
2024/02/21 04:04:00;;;;;;;11.43;3.53;;;;;;;6.83;100.00;101414.81;6017779;23;20507;-76
2024/02/21 04:06:28;;;;;;;12.93;4.23;;;;;;;6.81;100.00;101417.72;6016890;23;20170;-76
2024/02/21 04:08:55;;;;;;;11.37;3.53;;;;;;;6.80;100.00;101416.16;6017555;23;20372;-75
2024/02/21 04:11:21;;;;;;;9.17;3.00;;;;;;;6.80;100.00;101416.16;5982583;23;20188;-76
2024/02/21 04:13:49;;;;;;;14.10;3.47;;;;;;;6.79;100.00;101419.06;6017892;23;20196;-76
2024/02/21 04:16:16;;;;;;;8.67;3.47;;;;;;;6.79;100.00;101421.69;6006333;23;20220;-76
2024/02/21 04:18:42;;;;;;;11.53;3.53;;;;;;;6.76;100.00;101412.53;6017184;23;20251;-76
2024/02/21 04:21:09;;;;;;;10.80;3.47;;;;;;;6.75;100.00;101418.06;5982650;23;20176;-76
2024/02/21 04:23:36;;;;;;;11.10;3.80;;;;;;;6.73;100.00;101407.81;6005553;23;20645;-76
2024/02/21 04:26:03;;;;;;;13.27;3.73;;;;;;;6.73;100.00;101405.19;6017727;23;20645;-75
2024/02/21 04:28:30;;;;;;;14.53;3.20;;;;;;;6.74;100.00;101413.88;6016702;23;20189;-75
2024/02/21 04:30:56;;;;;;;12.83;3.47;;;;;;;6.71;100.00;101417.84;6017051;23;20267;-76
2024/02/21 04:33:22;;;;;;;13.53;3.50;;;;;;;6.70;100.00;101411.03;6017309;23;20171;-75
2024/02/21 04:35:49;;;;;;;12.30;3.70;;;;;;;6.68;100.00;101407.88;6016101;23;20169;-76
2024/02/21 04:38:15;;;;;;;8.70;3.80;;;;;;;6.67;100.00;101401.06;6016391;23;20188;-77
2024/02/21 04:40:43;;;;;;;14.23;4.03;;;;;;;6.65;100.00;101395.34;6017130;23;20194;-76
2024/02/21 04:43:09;;;;;;;16.07;4.00;;;;;;;6.66;100.00;101404.75;5981965;23;20172;-76
2024/02/21 04:45:36;;;;;;;7.67;3.17;;;;;;;6.65;100.00;101391.91;6017072;23;20168;-75
2024/02/21 04:48:02;;;;;;;11.43;3.43;;;;;;;6.64;100.00;101379.84;6016609;23;20179;-75
2024/02/21 04:50:28;;;;;;;9.97;3.47;;;;;;;6.66;100.00;101388.22;6017211;23;20266;-76
2024/02/21 04:52:55;;;;;;;11.30;3.60;;;;;;;6.62;100.00;101388.00;6016689;23;20197;-76
2024/02/21 04:55:21;;;;;;;15.43;3.80;;;;;;;6.62;100.00;101387.25;5982328;23;20180;-76
2024/02/21 04:57:49;;;;;;;10.90;4.23;;;;;;;6.63;100.00;101391.41;6005196;23;20175;-76
2024/02/21 05:00:16;;;;;;;14.67;4.07;;;;;;;6.62;100.00;101385.38;5982238;23;20200;-76
2024/02/21 05:02:42;;;;;;;9.50;3.70;;;;;;;6.62;100.00;101385.38;6016697;23;20179;-75
2024/02/21 05:05:09;;;;;;;9.40;3.80;;;;;;;6.62;100.00;101382.00;6016455;23;20173;-76
2024/02/21 05:07:35;;;;;;;8.43;3.90;;;;;;;6.61;100.00;101378.56;6016811;23;20178;-76
2024/02/21 05:10:02;;;;;;;12.30;3.63;;;;;;;6.60;100.00;101381.47;6016754;23;20507;-76
2024/02/21 05:12:30;;;;;;;10.43;3.53;;;;;;;6.58;100.00;101371.25;6017250;23;20173;-75
2024/02/21 05:14:57;;;;;;;7.13;3.50;;;;;;;6.59;100.00;101366.78;6003302;23;20177;-75
2024/02/21 05:17:24;;;;;;;12.63;4.90;;;;;;;6.57;100.00;101358.44;6016056;23;20180;-76
2024/02/21 05:19:50;;;;;;;13.50;4.67;;;;;;;6.56;100.00;101360.25;6016531;23;20191;-76
2024/02/21 05:22:16;;;;;;;10.93;3.83;;;;;;;6.54;100.00;101348.47;6016641;23;20164;-76
2024/02/21 05:24:43;;;;;;;10.87;3.50;;;;;;;6.52;100.00;101359.25;6016864;23;20174;-75
2024/02/21 05:27:09;;;;;;;14.73;4.33;;;;;;;6.50;100.00;101356.13;5981496;23;20611;-75
2024/02/21 05:29:35;;;;;;;15.17;4.43;;;;;;;6.49;100.00;101356.41;6012285;23;20638;-75
2024/02/21 05:32:03;;;;;;;18.30;4.33;;;;;;;6.47;100.00;101350.66;6012634;23;20180;-75
2024/02/21 05:34:30;;;;;;;11.10;3.33;;;;;;;6.45;100.00;101348.31;6011189;23;20245;-75
2024/02/21 05:36:57;;;;;;;8.33;3.90;;;;;;;6.44;100.00;101344.13;6010930;23;20168;-75
2024/02/21 05:39:23;;;;;;;10.30;3.70;;;;;;;6.44;100.00;101331.03;6012222;23;20214;-75
2024/02/21 05:41:50;;;;;;;11.70;3.43;;;;;;;6.43;100.00;101328.66;5977363;23;20203;-75
2024/02/21 05:44:17;;;;;;;13.37;3.57;;;;;;;6.42;100.00;101321.88;6010795;23;20169;-75
2024/02/21 05:46:44;;;;;;;12.50;4.03;;;;;;;6.41;100.00;101309.78;6012257;23;20168;-75
2024/02/21 05:49:11;;;;;;;10.40;3.90;;;;;;;6.40;100.00;101318.72;5977008;23;20205;-75
2024/02/21 05:51:38;;;;;;;14.53;3.70;;;;;;;6.40;100.00;101309.03;6011182;23;20211;-75
2024/02/21 05:54:04;;;;;;;7.53;3.40;;;;;;;6.41;100.00;101297.47;6010437;23;20172;-75
2024/02/21 05:56:30;;;;;;;14.07;3.97;;;;;;;6.40;100.00;101290.66;6010694;23;20577;-75
2024/02/21 05:58:57;;;;;;;14.43;4.23;;;;;;;6.41;100.00;101281.72;6012001;23;20195;-75
2024/02/21 06:01:24;;;;;;;16.00;4.37;;;;;;;6.42;100.00;101283.28;6012710;23;20585;-75
2024/02/21 06:03:50;;;;;;;12.50;4.27;;;;;;;6.42;100.00;101279.91;6012460;23;20192;-75
2024/02/21 06:06:18;;;;;;;13.27;4.50;;;;;;;6.43;100.00;101276.97;6011233;23;20168;-75
2024/02/21 06:08:44;;;;;;;13.73;4.87;;;;;;;6.45;100.00;101274.06;6009800;23;20192;-75
2024/02/21 06:11:10;;;;;;;10.53;4.03;;;;;;;6.46;100.00;101265.13;6012478;23;20191;-76
2024/02/21 06:13:40;;;;;;;12.43;4.60;;;;;;;6.46;100.00;101265.13;6013497;23;20168;-75
2024/02/21 06:16:07;;;;;;;13.57;4.73;;;;;;;6.47;100.00;101261.47;5976456;23;20647;-75
2024/02/21 06:18:34;;;;;;;20.10;4.90;;;;;;;6.48;100.00;101255.16;6012502;23;20195;-75
2024/02/21 06:21:01;;;;;;;14.33;4.40;;;;;;;6.48;100.00;101248.06;6013066;23;20611;-75
2024/02/21 06:23:28;;;;;;;12.77;4.20;;;;;;;6.48;100.00;101244.66;6013578;23;20168;-75
2024/02/21 06:25:55;;;;;;;11.97;4.70;;;;;;;6.49;100.00;101236.53;6011915;23;20173;-75
2024/02/21 06:28:21;;;;;;;16.93;6.03;;;;;;;6.49;100.00;101243.59;5977883;23;20196;-76
2024/02/21 06:30:47;;;;;;;15.43;5.10;;;;;;;6.50;100.00;101245.94;6013642;23;20646;-76
2024/02/21 06:33:14;;;;;;;12.33;4.60;;;;;;;6.52;100.00;101243.06;6013247;23;20178;-75
2024/02/21 06:35:42;;;;;;;13.07;4.77;;;;;;;6.51;100.00;101259.81;6011832;23;20176;-75
2024/02/21 06:38:09;;;;;;;9.13;4.83;;;;;;;6.54;100.00;101259.28;6013132;23;20571;-75
2024/02/21 06:40:39;;;;;;;9.00;4.20;;;;;;;6.54;100.00;101288.13;6012943;23;20164;-75
2024/02/21 06:43:07;;;;;;;14.43;3.77;;;;;;;6.55;100.00;101302.81;6012833;23;20200;-75
2024/02/21 06:45:36;;;;;;;17.87;4.53;;;;;;;6.55;100.00;101311.47;6012825;23;20179;-75
2024/02/21 06:48:03;;;;;;;13.77;3.93;;;;;;;6.56;100.00;101309.63;6012428;23;20235;-74
2024/02/21 06:50:29;;;;;;;10.37;4.03;;;;;;;6.57;100.00;101304.09;6014062;23;20196;-75
2024/02/21 06:52:56;;;;;;;7.80;4.20;;;;;;;6.59;100.00;101298.56;6003171;23;20218;-76
2024/02/21 06:55:22;;;;;;;11.43;5.00;;;;;;;6.59;100.00;101288.88;6011849;23;20772;-76
2024/02/21 06:57:50;;;;;;;11.73;3.63;;;;;;;6.62;100.00;101308.53;6012240;23;20175;-74
2024/02/21 07:00:18;;;;;;;12.73;4.00;;;;;;;6.63;100.00;101302.97;6012084;23;20195;-75
2024/02/21 07:02:44;;;;;;;8.17;4.07;;;;;;;6.66;100.00;101314.75;6006530;23;20168;-75
2024/02/21 07:05:11;;;;;;;10.33;4.10;;;;;;;6.68;100.00;101313.41;6011159;23;20164;-75
2024/02/21 07:07:37;;;;;;;9.33;4.03;;;;;;;6.71;100.00;101314.69;6013068;23;20632;-75
2024/02/21 07:10:04;;;;;;;11.37;4.17;;;;;;;6.75;100.00;101324.34;6012076;23;20650;-75
2024/02/21 07:12:30;;;;;;;13.93;3.93;;;;;;;6.77;100.00;101334.56;6012216;23;20176;-75
2024/02/21 07:14:58;;;;;;;10.80;4.67;;;;;;;6.80;100.00;101321.66;6012565;23;20168;-75
2024/02/21 07:17:24;;;;;;;10.33;3.90;;;;;;;6.84;100.00;101325.28;6012260;23;20174;-75
2024/02/21 07:19:51;;;;;;;9.83;4.03;;;;;;;6.88;100.00;101304.50;6012568;23;20267;-74
2024/02/21 07:22:17;;;;;;;11.70;3.77;;;;;;;6.91;100.00;101309.19;6012684;23;20274;-75
2024/02/21 07:24:43;;;;;;;12.20;4.20;;;;;;;6.94;100.00;101306.75;6012076;23;20183;-75
2024/02/21 07:27:10;;;;;;;14.60;4.27;;;;;;;6.97;100.00;101300.97;6000894;23;20802;-75
2024/02/21 07:29:36;;;;;;;13.73;4.80;;;;;;;7.00;100.00;101296.97;6011615;23;20842;-75
2024/02/21 07:32:05;;;;;;;10.67;4.07;;;;;;;7.02;100.00;101305.34;6013040;23;20543;-74
2024/02/21 07:34:31;;;;;;;9.20;4.00;;;;;;;7.07;100.00;101310.53;6012493;23;20165;-75
2024/02/21 07:37:00;;;;;;;10.33;4.73;;;;;;;7.09;100.00;101305.78;6010975;23;20176;-75
2024/02/21 07:39:26;;;;;;;14.57;4.37;;;;;;;7.13;100.00;101312.81;6013459;23;20188;-75
2024/02/21 07:41:52;;;;;;;10.63;3.87;;;;;;;7.16;100.00;101314.88;6012067;23;20160;-75
2024/02/21 07:44:19;;;;;;;13.37;4.37;;;;;;;7.20;100.00;101299.31;6012910;23;20169;-75
2024/02/21 07:46:45;;;;;;;14.53;4.87;;;;;;;7.22;100.00;101302.44;6012306;23;20164;-75
2024/02/21 07:49:13;;;;;;;8.57;3.63;;;;;;;7.25;100.00;101309.75;6013127;23;20224;-75
2024/02/21 07:51:39;;;;;;;12.37;4.60;;;;;;;7.27;100.00;101321.53;6013303;23;20197;-75
2024/02/21 07:54:08;;;;;;;11.10;4.27;;;;;;;7.28;100.00;101315.22;6012037;23;20170;-75
2024/02/21 07:56:34;;;;;;;9.63;3.70;;;;;;;7.29;100.00;101322.03;6013982;23;20658;-75
2024/02/21 07:59:00;;;;;;;8.30;3.83;;;;;;;7.31;100.00;101319.13;6015958;23;20189;-75
2024/02/21 08:01:27;;;;;;;10.13;3.57;;;;;;;7.33;100.00;101319.59;6016734;23;20169;-75
2024/02/21 08:03:53;;;;;;;11.47;4.10;;;;;;;7.35;100.00;101310.38;6016803;23;20728;-75
2024/02/21 08:06:21;;;;;;;9.27;4.17;;;;;;;7.40;100.00;101306.91;6016962;23;20174;-75
2024/02/21 08:08:47;;;;;;;12.90;4.27;;;;;;;7.43;100.00;101299.22;6006136;23;20198;-75
2024/02/21 08:11:14;;;;;;;11.17;4.13;;;;;;;7.48;100.00;101285.22;6017508;23;20735;-75
2024/02/21 08:13:40;;;;;;;15.77;4.20;;;;;;;7.53;100.00;101280.69;6017216;23;20176;-75
2024/02/21 08:16:07;;;;;;;13.97;4.57;;;;;;;7.58;100.00;101270.09;6017465;23;20488;-75
2024/02/21 08:18:36;;;;;;;10.27;4.40;;;;;;;7.63;100.00;101269.19;5982180;23;20659;-75
2024/02/21 08:21:03;;;;;;;13.73;4.10;;;;;;;7.65;100.00;101270.47;6016786;23;20230;-75
2024/02/21 08:23:31;;;;;;;11.43;4.13;;;;;;;7.68;100.00;101255.97;5982782;23;20698;-75
2024/02/21 08:25:58;;;;;;;13.93;4.70;;;;;;;7.68;100.00;101255.97;6006621;23;20561;-75
2024/02/21 08:28:25;;;;;;;11.00;4.17;;;;;;;7.70;100.00;101269.59;6017406;23;20586;-75
2024/02/21 08:30:51;;;;;;;13.90;4.23;;;;;;;7.71;100.00;101269.31;6006308;23;20218;-75
2024/02/21 08:33:18;;;;;;;13.97;4.57;;;;;;;7.72;100.00;101270.88;6016773;23;20490;-75
2024/02/21 08:35:45;;;;;;;7.47;4.30;;;;;;;7.74;100.00;101265.31;5981200;23;20178;-74
2024/02/21 08:38:11;;;;;;;15.47;4.73;;;;;;;7.75;100.00;101259.78;6016520;23;20169;-75
2024/02/21 08:40:39;;;;;;;13.00;4.83;;;;;;;7.79;100.00;101265.25;6016201;23;20175;-75
2024/02/21 08:43:05;;;;;;;12.83;3.90;;;;;;;7.83;100.00;101261.72;6017325;23;20367;-74
2024/02/21 08:45:31;;;;;;;13.23;4.50;;;;;;;7.87;100.00;101267.22;6016845;23;20166;-75
2024/02/21 08:47:58;;;;;;;9.27;3.77;;;;;;;7.91;100.00;101258.44;6017011;23;20178;-75
2024/02/21 08:50:24;;;;;;;9.27;4.53;;;;;;;7.95;100.00;101266.53;6016652;23;20248;-75
2024/02/21 08:52:50;;;;;;;8.87;4.30;;;;;;;7.97;100.00;101262.53;6016119;23;20193;-74
2024/02/21 08:55:17;;;;;;;9.90;3.90;;;;;;;8.01;100.00;101262.72;6016402;23;20252;-76
2024/02/21 08:57:44;;;;;;;10.53;4.30;;;;;;;8.05;100.00;101259.25;6016762;23;20178;-75
2024/02/21 09:00:12;;;;;;;10.30;4.30;;;;;;;8.09;100.00;101260.22;6016897;23;20193;-75
2024/02/21 09:02:42;;;;;;;8.27;4.23;;;;;;;8.13;100.00;101258.53;6017073;23;20178;-75
2024/02/21 09:05:09;;;;;;;12.27;4.53;;;;;;;8.21;100.00;101281.59;6016859;23;20329;-76
2024/02/21 09:07:35;;;;;;;8.07;3.90;;;;;;;8.28;100.00;101275.94;6016945;23;20170;-75
2024/02/21 09:10:02;;;;;;;10.17;4.47;;;;;;;8.33;100.00;101271.34;5981485;23;20523;-75
2024/02/21 09:12:29;;;;;;;12.70;4.60;;;;;;;8.40;100.00;101263.84;6016956;23;20279;-76
2024/02/21 09:14:57;;;;;;;10.10;5.63;;;;;;;8.49;100.00;101262.06;6016444;23;20169;-75
2024/02/21 09:17:24;;;;;;;15.23;4.83;;;;;;;8.58;100.00;101256.88;6016217;23;20182;-75
2024/02/21 09:19:51;;;;;;;11.63;4.90;;;;;;;8.65;100.00;101255.41;6016866;23;20190;-75
2024/02/21 09:22:17;;;;;;;13.57;4.50;;;;;;;8.73;100.00;101248.66;6016838;23;20178;-75
2024/02/21 09:24:44;;;;;;;9.57;4.07;;;;;;;8.80;100.00;101262.97;6016778;23;20171;-75
2024/02/21 09:27:10;;;;;;;10.13;4.63;;;;;;;8.88;100.00;101266.78;6005334;23;20176;-75
2024/02/21 09:29:36;;;;;;;9.73;4.87;;;;;;;8.92;100.00;101262.47;6016075;23;20328;-75
2024/02/21 09:32:05;;;;;;;10.33;4.03;;;;;;;8.97;100.00;101251.81;6016609;23;20194;-75
2024/02/21 09:34:31;;;;;;;8.83;4.47;;;;;;;9.03;100.00;101254.06;6016693;23;20251;-76
2024/02/21 09:36:58;;;;;;;12.97;4.23;;;;;;;9.07;100.00;101257.63;6013917;23;20180;-75
2024/02/21 09:39:25;;;;;;;9.77;4.47;;;;;;;9.12;100.00;101265.41;5982037;23;20745;-75
2024/02/21 09:41:55;;;;;;;8.67;4.63;;;;;;;9.17;100.00;101270.56;6016632;23;20176;-75
2024/02/21 09:44:22;;;;;;;9.90;4.10;;;;;;;9.22;100.00;101278.34;6016809;23;20539;-75
2024/02/21 09:46:58;;;;;;;9.63;4.50;;;;;;;9.23;100.00;101274.66;6004093;23;20177;-75
2024/02/21 09:49:32;;;;;;;6.77;3.73;;;;;;;9.26;100.00;101281.97;6014575;23;20274;-75
2024/02/21 09:52:05;;;;;;;11.80;5.93;;;;;;;9.24;100.00;101278.06;6016377;23;20187;-75
2024/02/21 09:54:34;;;;;;;10.37;6.40;;;;;;;9.28;100.00;101271.13;6016579;23;20168;-75
2024/02/21 09:57:01;;;;;;;8.47;5.17;;;;;;;9.30;100.00;101267.13;6005439;23;20176;-75
2024/02/21 09:59:28;;;;;;;10.60;5.23;;;;;;;9.34;100.00;101264.66;6006021;23;20546;-75
2024/02/21 10:01:55;;;;;;;7.53;3.87;;;;;;;9.37;100.00;101261.44;6024702;23;20329;-75
2024/02/21 10:04:21;;;;;;;8.47;4.47;;;;;;;9.40;100.00;101256.31;6030287;23;20168;-75
2024/02/21 10:06:50;;;;;;;9.13;4.10;;;;;;;9.44;100.00;101253.88;6017565;23;20526;-76
2024/02/21 10:09:23;;;;;;;7.07;4.23;;;;;;;9.48;100.00;101252.19;6024735;23;20193;-74
2024/02/21 10:11:50;;;;;;;7.40;4.23;;;;;;;9.52;100.00;101253.16;6023049;23;20191;-75
2024/02/21 10:14:17;;;;;;;7.67;3.97;;;;;;;9.57;100.00;101239.84;6026160;23;20175;-75
2024/02/21 10:16:44;;;;;;;11.10;4.73;;;;;;;9.63;100.00;101239.38;6023241;23;20174;-75
2024/02/21 10:19:17;;;;;;;12.10;4.63;;;;;;;9.65;100.00;101231.19;5989185;23;20198;-75
2024/02/21 10:21:44;;;;;;;7.83;4.20;;;;;;;9.69;100.00;101227.63;6011949;23;20209;-75
2024/02/21 10:24:13;;;;;;;12.13;4.33;;;;;;;9.76;100.00;101235.13;6022739;23;20168;-76
2024/02/21 10:26:39;;;;;;;7.37;4.40;;;;;;;9.77;100.00;101229.53;6024201;23;20233;-75
2024/02/21 10:29:05;;;;;;;8.20;4.20;;;;;;;9.84;100.00;101234.38;6029909;23;20189;-75
2024/02/21 10:31:33;;;;;;;8.13;4.07;;;;;;;9.85;100.00;101235.94;6026686;23;20193;-75
2024/02/21 10:34:02;;;;;;;9.73;4.63;;;;;;;9.85;100.00;101233.28;6021782;23;20174;-75
2024/02/21 10:36:29;;;;;;;8.10;4.90;;;;;;;9.87;100.00;101231.91;6003517;23;20185;-76
2024/02/21 10:38:56;;;;;;;11.63;4.50;;;;;;;9.87;100.00;101233.75;6015026;23;20185;-74
2024/02/21 10:41:25;;;;;;;9.63;4.97;;;;;;;9.88;100.00;101235.34;5979376;23;20258;-75
2024/02/21 10:43:53;;;;;;;10.03;4.43;;;;;;;9.88;100.00;101237.97;5981016;23;20203;-75
2024/02/21 10:46:21;;;;;;;7.77;4.43;;;;;;;9.87;100.00;101228.47;6015211;23;20743;-75
2024/02/21 10:48:48;;;;;;;8.80;4.10;;;;;;;9.87;100.00;101229.28;6014122;23;20198;-75
2024/02/21 10:51:19;;;;;;;9.43;4.83;;;;;;;9.87;100.00;101231.91;5980772;23;20665;-75
2024/02/21 10:53:47;;;;;;;13.37;5.10;;;;;;;9.89;100.00;101223.69;6016027;23;20177;-75
2024/02/21 10:56:27;;;;;;;9.67;4.60;;;;;;;9.87;100.00;101224.00;5982266;23;20175;-75
2024/02/21 10:58:55;;;;;;;11.90;4.77;;;;;;;9.89;100.00;101199.97;5981224;23;20196;-75
2024/02/21 11:01:22;;;;;;;9.83;4.37;;;;;;;9.91;100.00;101203.84;5980912;23;20175;-75
2024/02/21 11:03:51;;;;;;;10.03;4.47;;;;;;;9.94;100.00;101205.09;6016350;23;20241;-74
2024/02/21 11:06:19;;;;;;;7.67;4.37;;;;;;;9.95;100.00;101198.72;6015517;23;20248;-75
2024/02/21 11:08:46;;;;;;;8.70;5.33;;;;;;;9.96;100.00;101203.72;5981334;23;20621;-75
2024/02/21 11:11:17;;;;;;;10.13;5.00;;;;;;;9.97;100.00;101189.44;5982280;23;20171;-75
2024/02/21 11:13:45;;;;;;;6.47;4.30;;;;;;;9.97;100.00;101186.78;6016765;23;20276;-75
2024/02/21 11:16:22;;;;;;;8.00;4.50;;;;;;;10.03;100.00;101184.78;6004602;23;20180;-74
2024/02/21 11:18:48;;;;;;;6.90;4.50;;;;;;;10.07;100.00;101181.25;6004927;23;20205;-74